createdAt,value
2023-05-10T00:00:19.768Z,815.00
2023-05-10T00:01:19.788Z,815.00
2023-05-10T00:02:19.886Z,818.00
2023-05-10T00:03:20.404Z,817.00
2023-05-10T00:04:19.994Z,816.00
2023-05-10T00:05:20.003Z,813.00
2023-05-10T00:06:20.061Z,816.00
2023-05-10T00:07:20.129Z,818.00
2023-05-10T00:08:20.324Z,818.00
2023-05-10T00:09:20.185Z,819.00
2023-05-10T00:10:20.285Z,820.00
2023-05-10T00:11:22.890Z,819.00
2023-05-10T00:12:20.310Z,817.00
2023-05-10T00:13:20.364Z,814.00
2023-05-10T00:14:20.282Z,811.00
2023-05-10T00:15:20.296Z,808.00
2023-05-10T00:16:20.343Z,812.00
2023-05-10T00:17:20.276Z,815.00
2023-05-10T00:18:20.293Z,813.00
2023-05-10T00:19:20.228Z,811.00
2023-05-10T00:20:20.238Z,813.00
2023-05-10T00:21:20.218Z,812.00
2023-05-10T00:22:20.206Z,808.00
2023-05-10T00:23:20.349Z,809.00
2023-05-10T00:24:20.215Z,809.00
2023-05-10T00:25:20.199Z,807.00
2023-05-10T00:26:20.216Z,807.00
2023-05-10T00:27:20.228Z,806.00
2023-05-10T00:28:20.220Z,807.00
2023-05-10T00:29:20.174Z,806.00
2023-05-10T00:30:20.206Z,808.00
2023-05-10T00:31:20.169Z,810.00
2023-05-10T00:32:20.267Z,811.00
2023-05-10T00:33:20.199Z,808.00
2023-05-10T00:34:20.167Z,811.00
2023-05-10T00:35:20.153Z,813.00
2023-05-10T00:36:20.151Z,812.00
2023-05-10T00:37:20.159Z,810.00
2023-05-10T00:38:20.126Z,809.00
2023-05-10T00:39:20.130Z,807.00
2023-05-10T00:40:20.145Z,808.00
2023-05-10T00:41:20.118Z,807.00
2023-05-10T00:42:20.104Z,804.00
2023-05-10T00:43:20.083Z,803.00
2023-05-10T00:44:20.106Z,805.00
2023-05-10T00:45:20.123Z,804.00
2023-05-10T00:46:20.162Z,801.00
2023-05-10T00:47:20.109Z,798.00
2023-05-10T00:48:20.352Z,800.00
2023-05-10T00:49:20.073Z,799.00
2023-05-10T00:50:20.060Z,799.00
2023-05-10T00:51:20.038Z,799.00
2023-05-10T00:52:20.062Z,797.00
2023-05-10T00:53:20.367Z,795.00
2023-05-10T00:54:20.025Z,795.00
2023-05-10T00:55:20.075Z,794.00
2023-05-10T00:56:20.118Z,792.00
2023-05-10T00:57:20.186Z,790.00
2023-05-10T00:58:20.238Z,790.00
2023-05-10T00:59:20.288Z,787.00
2023-05-10T01:00:20.334Z,787.00
2023-05-10T01:01:20.391Z,787.00
2023-05-10T01:02:20.479Z,788.00
2023-05-10T01:03:20.633Z,789.00
2023-05-10T01:04:20.553Z,788.00
2023-05-10T01:05:20.753Z,787.00
2023-05-10T01:06:20.667Z,786.00
2023-05-10T01:07:20.683Z,785.00
2023-05-10T01:08:20.736Z,785.00
2023-05-10T01:09:20.790Z,786.00
2023-05-10T01:10:20.912Z,787.00
2023-05-10T01:11:20.940Z,786.00
2023-05-10T01:12:21.039Z,786.00
2023-05-10T01:13:21.098Z,786.00
2023-05-10T01:14:21.123Z,785.00
2023-05-10T01:15:21.162Z,784.00
2023-05-10T01:16:21.263Z,784.00
2023-05-10T01:17:21.314Z,783.00
2023-05-10T01:18:21.336Z,780.00
2023-05-10T01:19:21.378Z,780.00
2023-05-10T01:20:21.440Z,780.00
2023-05-10T01:21:21.494Z,781.00
2023-05-10T01:22:21.570Z,780.00
2023-05-10T01:23:21.882Z,779.00
2023-05-10T01:24:21.675Z,779.00
2023-05-10T01:25:21.716Z,778.00
2023-05-10T01:26:21.795Z,777.00
2023-05-10T01:27:21.834Z,777.00
2023-05-10T01:28:22.387Z,779.00
2023-05-10T01:29:21.967Z,779.00
2023-05-10T01:30:22.430Z,778.00
2023-05-10T01:31:22.092Z,777.00
2023-05-10T01:32:22.136Z,778.00
2023-05-10T01:33:22.178Z,778.00
2023-05-10T01:34:22.263Z,778.00
2023-05-10T01:35:22.309Z,778.00
2023-05-10T01:36:22.369Z,777.00
2023-05-10T01:37:22.412Z,776.00
2023-05-10T01:38:22.498Z,773.00
2023-05-10T01:39:22.912Z,775.00
2023-05-10T01:40:22.597Z,775.00
2023-05-10T01:41:22.656Z,777.00
2023-05-10T01:42:22.716Z,777.00
2023-05-10T01:43:22.782Z,774.00
2023-05-10T01:44:22.918Z,777.00
2023-05-10T01:45:22.889Z,779.00
2023-05-10T01:46:22.934Z,776.00
2023-05-10T01:47:23.021Z,775.00
2023-05-10T01:48:23.073Z,774.00
2023-05-10T01:49:23.116Z,772.00
2023-05-10T01:50:23.185Z,771.00
2023-05-10T01:51:23.227Z,768.00
2023-05-10T01:52:23.272Z,767.00
2023-05-10T01:53:23.331Z,766.00
2023-05-10T01:54:23.373Z,768.00
2023-05-10T01:55:23.455Z,770.00
2023-05-10T01:56:23.484Z,771.00
2023-05-10T01:57:23.588Z,770.00
2023-05-10T01:58:23.651Z,770.00
2023-05-10T01:59:23.897Z,768.00
2023-05-10T02:00:23.716Z,765.00
2023-05-10T02:01:23.799Z,764.00
2023-05-10T02:02:23.903Z,763.00
2023-05-10T02:03:23.935Z,765.00
2023-05-10T02:04:24.374Z,766.00
2023-05-10T02:05:24.015Z,763.00
2023-05-10T02:06:24.062Z,764.00
2023-05-10T02:07:24.158Z,762.00
2023-05-10T02:08:24.204Z,762.00
2023-05-10T02:09:24.450Z,762.00
2023-05-10T02:10:24.310Z,764.00
2023-05-10T02:11:24.389Z,765.00
2023-05-10T02:12:24.460Z,765.00
2023-05-10T02:13:24.605Z,763.00
2023-05-10T02:14:24.877Z,763.00
2023-05-10T02:15:24.635Z,761.00
2023-05-10T02:16:24.686Z,759.00
2023-05-10T02:17:24.796Z,762.00
2023-05-10T02:18:24.793Z,763.00
2023-05-10T02:19:24.891Z,761.00
2023-05-10T02:20:24.905Z,763.00
2023-05-10T02:21:24.974Z,761.00
2023-05-10T02:22:25.022Z,760.00
2023-05-10T02:23:25.083Z,758.00
2023-05-10T02:24:25.410Z,757.00
2023-05-10T02:25:25.198Z,758.00
2023-05-10T02:26:25.277Z,757.00
2023-05-10T02:27:25.346Z,754.00
2023-05-10T02:28:25.416Z,755.00
2023-05-10T02:29:25.449Z,754.00
2023-05-10T02:30:25.535Z,754.00
2023-05-10T02:31:25.581Z,757.00
2023-05-10T02:32:25.707Z,754.00
2023-05-10T02:33:25.694Z,756.00
2023-05-10T02:34:25.902Z,760.00
2023-05-10T02:35:25.814Z,756.00
2023-05-10T02:36:25.884Z,757.00
2023-05-10T02:37:25.907Z,756.00
2023-05-10T02:38:25.971Z,753.00
2023-05-10T02:39:26.062Z,754.00
2023-05-10T02:40:28.574Z,752.00
2023-05-10T02:41:26.110Z,753.00
2023-05-10T02:42:26.080Z,757.00
2023-05-10T02:43:26.098Z,758.00
2023-05-10T02:44:26.404Z,757.00
2023-05-10T02:45:26.045Z,759.00
2023-05-10T02:46:26.067Z,760.00
2023-05-10T02:47:26.043Z,760.00
2023-05-10T02:48:26.041Z,760.00
2023-05-10T02:49:26.445Z,757.00
2023-05-10T02:50:26.001Z,757.00
2023-05-10T02:51:26.016Z,756.00
2023-05-10T02:52:26.026Z,752.00
2023-05-10T02:53:26.044Z,752.00
2023-05-10T02:54:26.411Z,752.00
2023-05-10T02:55:26.009Z,751.00
2023-05-10T02:56:26.025Z,752.00
2023-05-10T02:57:26.019Z,750.00
2023-05-10T02:58:25.968Z,750.00
2023-05-10T02:59:25.959Z,752.00
2023-05-10T03:00:25.955Z,752.00
2023-05-10T03:01:25.996Z,754.00
2023-05-10T03:02:26.025Z,753.00
2023-05-10T03:03:25.950Z,751.00
2023-05-10T03:04:26.449Z,749.00
2023-05-10T03:05:25.924Z,749.00
2023-05-10T03:06:25.916Z,748.00
2023-05-10T03:07:25.892Z,747.00
2023-05-10T03:08:25.936Z,745.00
2023-05-10T03:09:25.918Z,745.00
2023-05-10T03:10:25.912Z,747.00
2023-05-10T03:11:25.911Z,746.00
2023-05-10T03:12:25.917Z,745.00
2023-05-10T03:13:25.928Z,745.00
2023-05-10T03:14:25.935Z,745.00
2023-05-10T03:15:25.856Z,744.00
2023-05-10T03:16:25.928Z,743.00
2023-05-10T03:17:25.935Z,741.00
2023-05-10T03:18:25.877Z,742.00
2023-05-10T03:19:26.436Z,742.00
2023-05-10T03:20:26.043Z,742.00
2023-05-10T03:21:26.100Z,744.00
2023-05-10T03:22:26.146Z,747.00
2023-05-10T03:23:26.233Z,748.00
2023-05-10T03:24:26.260Z,749.00
2023-05-10T03:25:26.339Z,748.00
2023-05-10T03:26:26.384Z,748.00
2023-05-10T03:27:26.449Z,749.00
2023-05-10T03:28:26.494Z,749.00
2023-05-10T03:29:26.935Z,745.00
2023-05-10T03:30:26.626Z,745.00
2023-05-10T03:31:26.716Z,746.00
2023-05-10T03:32:26.761Z,744.00
2023-05-10T03:33:26.756Z,743.00
2023-05-10T03:34:26.845Z,741.00
2023-05-10T03:35:26.893Z,739.00
2023-05-10T03:36:26.940Z,738.00
2023-05-10T03:37:27.021Z,740.00
2023-05-10T03:38:29.645Z,742.00
2023-05-10T03:39:27.060Z,742.00
2023-05-10T03:40:27.056Z,739.00
2023-05-10T03:41:27.034Z,738.00
2023-05-10T03:42:27.053Z,739.00
2023-05-10T03:43:27.027Z,738.00
2023-05-10T03:44:27.024Z,737.00
2023-05-10T03:45:27.050Z,738.00
2023-05-10T03:46:27.058Z,739.00
2023-05-10T03:47:27.098Z,740.00
2023-05-10T03:48:26.973Z,741.00
2023-05-10T03:49:27.449Z,738.00
2023-05-10T03:50:26.998Z,740.00
2023-05-10T03:51:26.989Z,737.00
2023-05-10T03:52:26.957Z,737.00
2023-05-10T03:53:26.952Z,737.00
2023-05-10T03:54:27.455Z,734.00
2023-05-10T03:55:26.957Z,731.00
2023-05-10T03:56:26.953Z,733.00
2023-05-10T03:57:26.942Z,734.00
2023-05-10T03:58:26.892Z,733.00
2023-05-10T03:59:26.924Z,733.00
2023-05-10T04:00:26.912Z,732.00
2023-05-10T04:01:26.916Z,735.00
2023-05-10T04:02:27.075Z,736.00
2023-05-10T04:03:26.964Z,736.00
2023-05-10T04:04:26.866Z,735.00
2023-05-10T04:05:26.883Z,738.00
2023-05-10T04:06:26.907Z,737.00
2023-05-10T04:07:26.836Z,736.00
2023-05-10T04:08:26.849Z,732.00
2023-05-10T04:09:26.867Z,733.00
2023-05-10T04:10:26.862Z,732.00
2023-05-10T04:11:26.841Z,728.00
2023-05-10T04:12:26.815Z,729.00
2023-05-10T04:13:26.933Z,730.00
2023-05-10T04:14:26.944Z,730.00
2023-05-10T04:15:27.014Z,729.00
2023-05-10T04:16:27.024Z,728.00
2023-05-10T04:17:27.155Z,729.00
2023-05-10T04:18:27.120Z,726.00
2023-05-10T04:19:27.221Z,727.00
2023-05-10T04:20:27.274Z,727.00
2023-05-10T04:21:27.315Z,727.00
2023-05-10T04:22:27.358Z,727.00
2023-05-10T04:23:27.431Z,726.00
2023-05-10T04:24:27.968Z,724.00
2023-05-10T04:25:27.568Z,722.00
2023-05-10T04:26:27.621Z,719.00
2023-05-10T04:27:27.655Z,719.00
2023-05-10T04:28:27.729Z,719.00
2023-05-10T04:29:27.784Z,717.00
2023-05-10T04:30:27.875Z,714.00
2023-05-10T04:31:28.020Z,717.00
2023-05-10T04:32:27.973Z,719.00
2023-05-10T04:33:28.033Z,719.00
2023-05-10T04:34:28.068Z,718.00
2023-05-10T04:35:28.103Z,719.00
2023-05-10T04:36:28.190Z,717.00
2023-05-10T04:37:28.236Z,715.00
2023-05-10T04:38:28.319Z,717.00
2023-05-10T04:39:28.349Z,716.00
2023-05-10T04:40:28.397Z,716.00
2023-05-10T04:41:28.449Z,717.00
2023-05-10T04:42:28.483Z,720.00
2023-05-10T04:43:28.544Z,720.00
2023-05-10T04:44:28.639Z,721.00
2023-05-10T04:45:28.667Z,720.00
2023-05-10T04:46:28.805Z,719.00
2023-05-10T04:47:28.813Z,720.00
2023-05-10T04:48:28.857Z,721.00
2023-05-10T04:49:28.989Z,720.00
2023-05-10T04:50:28.938Z,721.00
2023-05-10T04:51:29.022Z,719.00
2023-05-10T04:52:29.073Z,718.00
2023-05-10T04:53:29.140Z,714.00
2023-05-10T04:54:29.187Z,713.00
2023-05-10T04:55:29.298Z,712.00
2023-05-10T04:56:29.293Z,713.00
2023-05-10T04:57:29.361Z,712.00
2023-05-10T04:58:29.431Z,709.00
2023-05-10T04:59:29.489Z,710.00
2023-05-10T05:00:29.552Z,711.00
2023-05-10T05:01:29.606Z,710.00
2023-05-10T05:02:29.746Z,707.00
2023-05-10T05:03:29.721Z,708.00
2023-05-10T05:04:29.990Z,708.00
2023-05-10T05:05:29.798Z,709.00
2023-05-10T05:06:29.842Z,706.00
2023-05-10T05:07:29.909Z,707.00
2023-05-10T05:08:29.958Z,705.00
2023-05-10T05:09:30.006Z,703.00
2023-05-10T05:10:30.150Z,701.00
2023-05-10T05:11:30.105Z,700.00
2023-05-10T05:12:30.152Z,703.00
2023-05-10T05:13:30.426Z,706.00
2023-05-10T05:14:30.284Z,707.00
2023-05-10T05:15:30.325Z,707.00
2023-05-10T05:16:30.452Z,707.00
2023-05-10T05:17:30.439Z,704.00
2023-05-10T05:18:30.502Z,705.00
2023-05-10T05:19:30.538Z,705.00
2023-05-10T05:20:30.633Z,706.00
2023-05-10T05:21:30.650Z,708.00
2023-05-10T05:22:30.719Z,706.00
2023-05-10T05:23:30.769Z,704.00
2023-05-10T05:24:30.898Z,701.00
2023-05-10T05:25:30.918Z,699.00
2023-05-10T05:26:30.896Z,697.00
2023-05-10T05:27:30.982Z,697.00
2023-05-10T05:28:31.010Z,695.00
2023-05-10T05:29:31.114Z,698.00
2023-05-10T05:30:31.168Z,701.00
2023-05-10T05:31:31.229Z,702.00
2023-05-10T05:32:31.264Z,703.00
2023-05-10T05:33:31.311Z,700.00
2023-05-10T05:34:31.344Z,700.00
2023-05-10T05:35:31.421Z,699.00
2023-05-10T05:36:31.454Z,699.00
2023-05-10T05:37:31.501Z,698.00
2023-05-10T05:38:31.620Z,698.00
2023-05-10T05:39:31.639Z,694.00
2023-05-10T05:40:31.663Z,692.00
2023-05-10T05:41:31.737Z,691.00
2023-05-10T05:42:31.813Z,688.00
2023-05-10T05:43:31.835Z,688.00
2023-05-10T05:44:32.026Z,690.00
2023-05-10T05:45:32.003Z,692.00
2023-05-10T05:46:32.001Z,692.00
2023-05-10T05:47:32.071Z,717.00
2023-05-10T05:48:32.133Z,761.00
2023-05-10T05:49:32.508Z,827.00
2023-05-10T05:50:32.229Z,775.00
2023-05-10T05:51:32.314Z,759.00
2023-05-10T05:52:32.364Z,746.00
2023-05-10T05:53:32.413Z,761.00
2023-05-10T05:54:32.509Z,845.00
2023-05-10T05:55:32.536Z,846.00
2023-05-10T05:56:32.597Z,863.00
2023-05-10T05:57:32.640Z,941.00
2023-05-10T05:58:32.722Z,989.00
2023-05-10T05:59:33.031Z,1012.00
2023-05-10T06:00:32.806Z,1160.00
2023-05-10T06:01:32.866Z,1153.00
2023-05-10T06:02:32.974Z,1109.00
2023-05-10T06:03:32.980Z,1198.00
2023-05-10T06:04:33.079Z,1143.00
2023-05-10T06:05:33.051Z,1296.00
2023-05-10T06:06:33.065Z,1348.00
2023-05-10T06:07:33.109Z,1405.00
2023-05-10T06:08:33.092Z,1423.00
2023-05-10T06:09:33.142Z,1397.00
2023-05-10T06:10:33.150Z,1425.00
2023-05-10T06:11:33.160Z,1412.00
2023-05-10T06:12:33.102Z,1419.00
2023-05-10T06:13:33.350Z,1271.00
2023-05-10T06:14:33.529Z,1396.00
2023-05-10T06:15:33.121Z,1393.00
2023-05-10T06:16:33.138Z,1344.00
2023-05-10T06:17:33.179Z,1445.00
2023-05-10T06:18:33.160Z,1469.00
2023-05-10T06:19:33.178Z,1372.00
2023-05-10T06:20:33.188Z,1393.00
2023-05-10T06:21:33.202Z,1415.00
2023-05-10T06:22:33.282Z,1464.00
2023-05-10T06:23:33.312Z,1469.00
2023-05-10T06:24:33.513Z,1474.00
2023-05-10T06:25:33.552Z,1479.00
2023-05-10T06:26:33.515Z,1480.00
2023-05-10T06:27:33.644Z,1563.00
2023-05-10T06:28:33.592Z,1591.00
2023-05-10T06:29:34.041Z,1604.00
2023-05-10T06:30:33.705Z,1591.00
2023-05-10T06:31:34.873Z,1601.00
2023-05-10T06:32:33.877Z,1605.00
2023-05-10T06:33:33.830Z,1603.00
2023-05-10T06:34:34.022Z,1605.00
2023-05-10T06:35:33.921Z,1619.00
2023-05-10T06:36:34.009Z,1657.00
2023-05-10T06:37:34.032Z,1662.00
2023-05-10T06:38:34.004Z,1634.00
2023-05-10T06:39:34.063Z,1657.00
2023-05-10T06:40:34.078Z,1672.00
2023-05-10T06:41:34.083Z,1708.00
2023-05-10T06:42:34.114Z,1727.00
2023-05-10T06:43:34.151Z,1786.00
2023-05-10T06:44:34.171Z,1745.00
2023-05-10T06:45:34.167Z,1753.00
2023-05-10T06:46:34.247Z,1828.00
2023-05-10T06:47:35.849Z,1786.00
2023-05-10T06:48:34.227Z,1789.00
2023-05-10T06:49:34.219Z,1789.00
2023-05-10T06:50:34.199Z,1714.00
2023-05-10T06:51:34.208Z,1771.00
2023-05-10T06:52:34.159Z,1442.00
2023-05-10T06:53:34.160Z,1022.00
2023-05-10T06:54:34.498Z,885.00
2023-05-10T06:55:34.158Z,890.00
2023-05-10T06:56:34.149Z,948.00
2023-05-10T06:57:34.162Z,1119.00
2023-05-10T06:58:34.161Z,1206.00
2023-05-10T06:59:34.265Z,1144.00
2023-05-10T07:00:34.218Z,1136.00
2023-05-10T07:01:34.127Z,1080.00
2023-05-10T07:02:34.228Z,998.00
2023-05-10T07:03:34.085Z,967.00
2023-05-10T07:04:34.110Z,974.00
2023-05-10T07:05:34.173Z,983.00
2023-05-10T07:06:35.023Z,952.00
2023-05-10T07:07:34.068Z,1040.00
2023-05-10T07:08:34.095Z,1017.00
2023-05-10T07:09:34.051Z,1004.00
2023-05-10T07:10:34.052Z,960.00
2023-05-10T07:11:34.071Z,965.00
2023-05-10T07:12:34.132Z,962.00
2023-05-10T07:13:34.085Z,946.00
2023-05-10T07:14:34.576Z,937.00
2023-05-10T07:15:34.023Z,929.00
2023-05-10T07:16:34.041Z,1041.00
2023-05-10T07:17:34.051Z,1056.00
2023-05-10T07:18:34.016Z,1079.00
2023-05-10T07:19:33.996Z,1131.00
2023-05-10T07:20:33.970Z,1152.00
2023-05-10T07:21:34.034Z,1237.00
2023-05-10T07:22:33.955Z,1221.00
2023-05-10T07:23:33.981Z,1224.00
2023-05-10T07:24:34.116Z,1233.00
2023-05-10T07:25:33.942Z,1249.00
2023-05-10T07:26:33.951Z,1269.00
2023-05-10T07:27:33.905Z,1289.00
2023-05-10T07:28:34.544Z,1310.00
2023-05-10T07:29:34.032Z,1349.00
2023-05-10T07:30:33.938Z,1378.00
2023-05-10T07:31:33.915Z,1405.00
2023-05-10T07:32:34.093Z,1423.00
2023-05-10T07:33:33.947Z,1446.00
2023-05-10T07:34:33.988Z,1486.00
2023-05-10T07:35:34.049Z,1487.00
2023-05-10T07:36:34.054Z,1519.00
2023-05-10T07:37:34.070Z,1543.00
2023-05-10T07:38:34.072Z,1566.00
2023-05-10T07:39:34.138Z,1595.00
2023-05-10T07:40:34.135Z,1612.00
2023-05-10T07:41:35.820Z,1636.00
2023-05-10T07:42:34.184Z,1660.00
2023-05-10T07:43:34.197Z,1677.00
2023-05-10T07:44:34.579Z,1697.00
2023-05-10T07:45:34.304Z,1737.00
2023-05-10T07:46:34.304Z,1800.00
2023-05-10T07:47:34.334Z,1789.00
2023-05-10T07:48:34.337Z,1847.00
2023-05-10T07:49:34.307Z,1895.00
2023-05-10T07:50:34.563Z,1924.00
2023-05-10T07:51:34.314Z,1885.00
2023-05-10T07:52:34.330Z,1982.00
2023-05-10T07:53:34.337Z,1981.00
2023-05-10T07:54:34.322Z,2111.00
2023-05-10T07:55:34.563Z,2118.00
2023-05-10T07:56:34.377Z,2123.00
2023-05-10T07:57:34.469Z,2130.00
2023-05-10T07:58:34.504Z,2251.00
2023-05-10T07:59:34.551Z,2269.00
2023-05-10T08:00:35.062Z,2281.00
2023-05-10T08:01:34.702Z,2307.00
2023-05-10T08:02:34.886Z,2356.00
2023-05-10T08:03:34.895Z,2380.00
2023-05-10T08:04:34.895Z,2502.00
2023-05-10T08:05:35.769Z,2530.00
2023-05-10T08:06:34.936Z,2553.00
2023-05-10T08:07:34.971Z,2576.00
2023-05-10T08:08:35.032Z,2612.00
2023-05-10T08:09:35.029Z,2670.00
2023-05-10T08:10:35.579Z,2690.00
2023-05-10T08:11:35.446Z,2707.00
2023-05-10T08:12:35.148Z,2729.00
2023-05-10T08:13:35.229Z,2759.00
2023-05-10T08:14:35.231Z,2837.00
2023-05-10T08:15:35.570Z,2876.00
2023-05-10T08:16:35.292Z,2886.00
2023-05-10T08:17:35.335Z,2909.00
2023-05-10T08:18:35.383Z,2962.00
2023-05-10T08:19:35.571Z,3005.00
2023-05-10T08:20:35.449Z,3049.00
2023-05-10T08:21:35.450Z,3222.00
2023-05-10T08:22:35.454Z,3060.00
2023-05-10T08:23:35.504Z,3029.00
2023-05-10T08:24:35.533Z,2963.00
2023-05-10T08:25:35.591Z,2828.00
2023-05-10T08:26:35.592Z,2649.00
2023-05-10T08:27:35.648Z,2650.00
2023-05-10T08:28:35.657Z,2657.00
2023-05-10T08:29:48.873Z,2673.00
2023-05-10T08:30:37.049Z,2682.00
2023-05-10T08:31:35.677Z,2665.00
2023-05-10T08:32:35.701Z,2652.00
2023-05-10T08:33:35.628Z,2640.00
2023-05-10T08:34:35.637Z,2633.00
2023-05-10T08:35:35.657Z,2627.00
2023-05-10T08:36:35.664Z,2614.00
2023-05-10T08:37:35.623Z,2604.00
2023-05-10T08:38:35.614Z,2572.00
2023-05-10T08:39:35.611Z,2496.00
2023-05-10T08:40:36.099Z,2484.00
2023-05-10T08:41:35.590Z,2470.00
2023-05-10T08:42:35.621Z,2431.00
2023-05-10T08:43:35.549Z,2239.00
2023-05-10T08:44:35.626Z,2350.00
2023-05-10T08:45:35.559Z,2334.00
2023-05-10T08:46:35.593Z,2362.00
2023-05-10T08:47:35.547Z,2422.00
2023-05-10T08:48:35.611Z,2225.00
2023-05-10T08:49:35.612Z,2249.00
2023-05-10T08:50:35.695Z,2219.00
2023-05-10T08:51:35.736Z,2200.00
2023-05-10T08:52:35.789Z,1628.00
2023-05-10T08:53:35.833Z,1455.00
2023-05-10T08:54:35.899Z,1459.00
2023-05-10T08:55:36.023Z,1466.00
2023-05-10T08:56:36.009Z,1472.00
2023-05-10T08:57:36.024Z,1466.00
2023-05-10T08:58:36.034Z,1470.00
2023-05-10T08:59:36.032Z,1682.00
2023-05-10T09:00:36.171Z,1812.00
2023-05-10T09:01:36.011Z,1769.00
2023-05-10T09:02:36.041Z,1778.00
2023-05-10T09:03:36.049Z,1772.00
2023-05-10T09:04:36.132Z,1766.00
2023-05-10T09:05:36.078Z,1778.00
2023-05-10T09:06:36.072Z,1796.00
2023-05-10T09:07:36.451Z,1805.00
2023-05-10T09:08:36.093Z,1810.00
2023-05-10T09:09:36.108Z,1809.00
2023-05-10T09:10:36.102Z,1803.00
2023-05-10T09:11:36.160Z,1794.00
2023-05-10T09:12:36.145Z,1790.00
2023-05-10T09:13:36.287Z,1789.00
2023-05-10T09:14:36.159Z,1789.00
2023-05-10T09:15:36.600Z,1785.00
2023-05-10T09:16:36.276Z,1784.00
2023-05-10T09:17:36.265Z,1788.00
2023-05-10T09:18:36.278Z,1787.00
2023-05-10T09:19:36.310Z,1790.00
2023-05-10T09:20:36.315Z,1792.00
2023-05-10T09:21:36.363Z,1790.00
2023-05-10T09:22:36.399Z,1792.00
2023-05-10T09:23:36.495Z,1795.00
2023-05-10T09:24:36.472Z,1797.00
2023-05-10T09:25:36.546Z,1798.00
2023-05-10T09:26:36.525Z,1798.00
2023-05-10T09:27:36.560Z,1801.00
2023-05-10T09:28:36.583Z,1798.00
2023-05-10T09:29:36.605Z,1798.00
2023-05-10T09:30:36.726Z,1798.00
2023-05-10T09:31:36.693Z,1796.00
2023-05-10T09:32:36.746Z,1791.00
2023-05-10T09:33:36.786Z,1787.00
2023-05-10T09:34:36.793Z,1784.00
2023-05-10T09:35:36.836Z,1783.00
2023-05-10T09:36:36.861Z,1777.00
2023-05-10T09:37:36.914Z,1774.00
2023-05-10T09:38:36.935Z,1775.00
2023-05-10T09:39:36.990Z,1776.00
2023-05-10T09:40:37.111Z,1777.00
2023-05-10T09:41:37.075Z,1779.00
2023-05-10T09:42:37.127Z,1780.00
2023-05-10T09:43:37.159Z,1776.00
2023-05-10T09:44:37.205Z,1775.00
2023-05-10T09:45:38.993Z,1767.00
2023-05-10T09:46:37.430Z,1768.00
2023-05-10T09:47:37.384Z,1762.00
2023-05-10T09:48:37.404Z,1754.00
2023-05-10T09:49:37.446Z,1751.00
2023-05-10T09:50:37.704Z,1751.00
2023-05-10T09:51:37.576Z,1752.00
2023-05-10T09:52:37.629Z,1750.00
2023-05-10T09:53:37.670Z,1744.00
2023-05-10T09:54:37.714Z,1737.00
2023-05-10T09:55:38.128Z,1728.00
2023-05-10T09:56:37.945Z,1723.00
2023-05-10T09:57:37.893Z,1716.00
2023-05-10T09:58:37.945Z,1716.00
2023-05-10T09:59:38.015Z,1717.00
2023-05-10T10:00:38.118Z,1717.00
2023-05-10T10:01:38.116Z,1716.00
2023-05-10T10:02:38.278Z,1710.00
2023-05-10T10:03:38.273Z,1710.00
2023-05-10T10:04:38.314Z,1707.00
2023-05-10T10:05:38.372Z,1707.00
2023-05-10T10:06:39.386Z,1712.00
2023-05-10T10:07:38.363Z,1710.00
2023-05-10T10:08:38.365Z,1706.00
2023-05-10T10:09:38.345Z,1702.00
2023-05-10T10:10:38.395Z,1705.00
2023-05-10T10:11:38.394Z,1706.00
2023-05-10T10:12:38.326Z,1710.00
2023-05-10T10:13:38.330Z,1712.00
2023-05-10T10:14:38.343Z,1714.00
2023-05-10T10:15:38.681Z,1716.00
2023-05-10T10:16:45.800Z,1712.00
2023-05-10T10:17:39.474Z,1706.00
2023-05-10T10:18:38.472Z,1707.00
2023-05-10T10:19:38.648Z,1707.00
2023-05-10T10:20:38.625Z,1703.00
2023-05-10T10:21:38.413Z,1706.00
2023-05-10T10:22:38.407Z,1701.00
2023-05-10T10:23:38.402Z,1700.00
2023-05-10T10:24:38.369Z,1702.00
2023-05-10T10:25:38.630Z,1699.00
2023-05-10T10:26:38.384Z,1697.00
2023-05-10T10:27:38.397Z,1697.00
2023-05-10T10:28:38.445Z,1697.00
2023-05-10T10:29:38.464Z,1699.00
2023-05-10T10:30:38.671Z,1692.00
2023-05-10T10:31:38.494Z,1686.00
2023-05-10T10:32:38.505Z,1684.00
2023-05-10T10:33:38.489Z,1681.00
2023-05-10T10:34:38.476Z,1682.00
2023-05-10T10:35:38.660Z,1679.00
2023-05-10T10:36:38.476Z,1676.00
2023-05-10T10:37:38.520Z,1675.00
2023-05-10T10:38:38.515Z,1672.00
2023-05-10T10:39:38.517Z,1666.00
2023-05-10T10:40:38.643Z,1665.00
2023-05-10T10:41:38.488Z,1659.00
2023-05-10T10:42:38.503Z,1655.00
2023-05-10T10:43:38.528Z,1651.00
2023-05-10T10:45:57.255Z,1665.00
2023-05-10T10:46:57.260Z,1663.00
2023-05-10T10:47:57.243Z,1660.00
2023-05-10T10:48:57.253Z,1657.00
2023-05-10T10:49:57.237Z,1654.00
2023-05-10T10:50:57.459Z,1653.00
2023-05-10T10:51:57.194Z,1654.00
2023-05-10T10:52:57.268Z,1654.00
2023-05-10T10:53:57.172Z,1651.00
2023-05-10T10:54:57.193Z,1644.00
2023-05-10T10:55:57.191Z,1641.00
2023-05-10T10:56:57.195Z,1638.00
2023-05-10T10:57:57.154Z,1630.00
2023-05-10T10:58:57.173Z,1621.00
2023-05-10T10:59:57.146Z,1618.00
2023-05-10T11:00:57.488Z,1614.00
2023-05-10T11:01:57.129Z,1607.00
2023-05-10T11:02:57.184Z,1606.00
2023-05-10T11:03:57.159Z,1597.00
2023-05-10T11:04:57.114Z,1593.00
2023-05-10T11:05:57.462Z,1596.00
2023-05-10T11:06:57.106Z,1598.00
2023-05-10T11:07:57.112Z,1598.00
2023-05-10T11:08:57.073Z,1597.00
2023-05-10T11:09:57.115Z,1594.00
2023-05-10T11:10:57.452Z,1590.00
2023-05-10T11:11:57.082Z,1582.00
2023-05-10T11:12:57.067Z,1574.00
2023-05-10T11:13:57.086Z,1564.00
2023-05-10T11:14:57.981Z,1567.00
2023-05-10T11:15:57.471Z,1567.00
2023-05-10T11:16:57.040Z,1561.00
2023-05-10T11:17:57.062Z,1559.00
2023-05-10T11:18:57.086Z,1555.00
2023-05-10T11:19:57.009Z,1550.00
2023-05-10T11:20:57.473Z,1549.00
2023-05-10T11:21:56.997Z,1553.00
2023-05-10T11:22:57.010Z,1549.00
2023-05-10T11:23:57.074Z,1548.00
2023-05-10T11:24:56.975Z,1549.00
2023-05-10T11:25:57.473Z,1546.00
2023-05-10T11:26:56.957Z,1553.00
2023-05-10T11:27:56.930Z,1557.00
2023-05-10T11:28:56.939Z,1556.00
2023-05-10T11:29:56.904Z,1552.00
2023-05-10T11:30:56.978Z,1551.00
2023-05-10T11:31:56.944Z,1547.00
2023-05-10T11:32:56.909Z,1545.00
2023-05-10T11:33:56.907Z,1537.00
2023-05-10T11:34:56.892Z,1540.00
2023-05-10T11:35:56.959Z,1547.00
2023-05-10T11:36:56.950Z,1536.00
2023-05-10T11:37:56.948Z,1466.00
2023-05-10T11:38:56.917Z,1472.00
2023-05-10T11:39:56.896Z,1482.00
2023-05-10T11:40:56.981Z,1489.00
2023-05-10T11:41:56.905Z,1500.00
2023-05-10T11:42:56.857Z,1500.00
2023-05-10T11:43:56.849Z,1501.00
2023-05-10T11:44:56.826Z,1503.00
2023-05-10T11:45:56.828Z,1499.00
2023-05-10T11:46:56.853Z,1499.00
2023-05-10T11:47:56.898Z,1504.00
2023-05-10T11:48:56.831Z,1505.00
2023-05-10T11:49:56.868Z,1506.00
2023-05-10T11:50:56.995Z,1503.00
2023-05-10T11:51:56.908Z,1502.00
2023-05-10T11:52:56.916Z,1501.00
2023-05-10T11:53:56.937Z,1501.00
2023-05-10T11:54:56.947Z,1497.00
2023-05-10T11:55:56.901Z,1495.00
2023-05-10T11:56:56.971Z,1495.00
2023-05-10T11:57:56.909Z,1496.00
2023-05-10T11:58:56.914Z,1494.00
2023-05-10T11:59:56.895Z,1492.00
2023-05-10T12:00:56.898Z,1494.00
2023-05-10T12:01:56.924Z,1494.00
2023-05-10T12:02:57.092Z,1491.00
2023-05-10T12:03:57.044Z,1494.00
2023-05-10T12:04:56.932Z,1490.00
2023-05-10T12:05:56.904Z,1486.00
2023-05-10T12:06:57.012Z,1483.00
2023-05-10T12:07:56.917Z,1482.00
2023-05-10T12:08:56.927Z,1479.00
2023-05-10T12:09:56.873Z,1480.00
2023-05-10T12:10:56.892Z,1479.00
2023-05-10T12:11:56.880Z,1479.00
2023-05-10T12:12:56.869Z,1481.00
2023-05-10T12:13:56.918Z,1477.00
2023-05-10T12:14:56.866Z,1476.00
2023-05-10T12:15:56.878Z,1473.00
2023-05-10T12:16:56.928Z,1472.00
2023-05-10T12:17:56.849Z,1471.00
2023-05-10T12:18:57.013Z,1465.00